Terminal Aerodrome Forecast
Issued by NWS Grand Forks, ND

Home | Current Version | Previous Version | Graphics & Text | Print | Product List | Glossary On
Versions: 1 2 3 4 5 6 7 8 9 10 11 12 13 14 15 16 17 18 19 20 21 22 23 24 25 26 27 28
442
FTUS43 KFGF 081510 AAB
TAFGFK
TAF AMD
KGFK 081510Z 0815/0912 34015G25KT P6SM -SN OVC025
      TEMPO 0815/0818 2SM -SN BLSN BKN015
     FM081800 35018KT P6SM OVC025
     FM090000 34012KT P6SM SCT120=

USA.gov is the U.S. government's official web portal to all federal, state and local government web resources and services.